Time;durP1;ratioP1;P1;durP2;ratioP2;P2;SDS_P1;SDS_P2;PMS_P1;PMS_P2;Temp;Humidity;BMP_temperature;BMP_pressure;BME280_temperature;BME280_humidity;BME280_pressure;Samples;Min_cycle;Max_cycle;Signal;HPM_P1;HPM_P2
2021/09/17 00:02:17;;;;;;;4.22;2.72;;;19.40;75.00;;;;;;2459109;55;21023;-83
2021/09/17 00:04:43;;;;;;;5.55;2.70;;;19.40;75.00;;;;;;2274578;56;20999;-87
2021/09/17 00:07:10;;;;;;;3.22;2.30;;;19.30;74.90;;;;;;2457957;55;22111;-86
2021/09/17 00:09:36;;;;;;;3.85;2.87;;;19.30;75.00;;;;;;2456856;55;20971;-85
2021/09/17 00:12:03;;;;;;;4.57;2.50;;;19.20;75.00;;;;;;2237223;56;20971;-85
2021/09/17 00:14:30;;;;;;;5.65;3.00;;;19.20;74.90;;;;;;2267408;55;21070;-86
2021/09/17 00:16:56;;;;;;;3.45;2.20;;;19.20;74.80;;;;;;2456267;55;21003;-86
2021/09/17 00:19:22;;;;;;;4.37;2.30;;;19.10;74.70;;;;;;2237066;56;21023;-86
2021/09/17 00:21:48;;;;;;;3.25;2.20;;;19.10;74.60;;;;;;2458121;55;20976;-86
2021/09/17 00:24:15;;;;;;;4.07;2.15;;;19.10;74.60;;;;;;2458635;55;21024;-85
2021/09/17 00:26:41;;;;;;;3.17;1.95;;;19.00;74.50;;;;;;2459232;55;21055;-84
2021/09/17 00:29:07;;;;;;;2.97;1.67;;;19.00;74.50;;;;;;2500768;54;20960;-86
2021/09/17 00:31:33;;;;;;;4.25;2.10;;;18.90;74.40;;;;;;2459779;55;22348;-86
2021/09/17 00:34:00;;;;;;;3.15;2.10;;;18.90;74.40;;;;;;2497231;54;25292;-85
2021/09/17 00:36:27;;;;;;;3.42;2.28;;;18.80;74.30;;;;;;2239768;56;21030;-85
2021/09/17 00:38:53;;;;;;;3.90;2.37;;;18.80;74.40;;;;;;2456328;55;20992;-84
2021/09/17 00:41:19;;;;;;;3.97;2.60;;;18.70;74.30;;;;;;2236616;56;20947;-85
2021/09/17 00:43:45;;;;;;;3.20;2.03;;;18.60;74.20;;;;;;2238224;56;21016;-85
2021/09/17 00:46:11;;;;;;;3.47;2.30;;;18.60;74.20;;;;;;2239707;56;21065;-84
2021/09/17 00:48:38;;;;;;;3.83;2.55;;;18.60;74.20;;;;;;2500103;54;21004;-84
2021/09/17 00:51:04;;;;;;;3.53;2.37;;;18.50;74.10;;;;;;2458828;55;20947;-85
2021/09/17 00:53:33;;;;;;;3.30;2.10;;;18.40;74.10;;;;;;2276014;55;20972;-85
2021/09/17 00:56:04;;;;;;;4.80;2.20;;;18.40;74.20;;;;;;2459028;55;20992;-84
2021/09/17 00:58:30;;;;;;;3.97;1.98;;;18.40;74.20;;;;;;2245369;56;20943;-86
2021/09/17 01:00:56;;;;;;;4.97;2.12;;;18.30;74.20;;;;;;2262150;56;21026;-85
2021/09/17 01:03:24;;;;;;;3.70;1.98;;;18.30;74.30;;;;;;2269428;55;20963;-85
2021/09/17 01:05:50;;;;;;;3.58;1.95;;;18.20;74.30;;;;;;2500549;54;20959;-86
2021/09/17 01:08:16;;;;;;;3.00;1.90;;;18.20;74.40;;;;;;2458667;55;21003;-84
2021/09/17 01:10:43;;;;;;;4.30;1.92;;;18.20;74.50;;;;;;2459118;55;20939;-85
2021/09/17 01:13:09;;;;;;;3.15;2.08;;;18.10;74.50;;;;;;2480168;55;20979;-85
2021/09/17 01:15:36;;;;;;;5.62;1.73;;;18.10;74.70;;;;;;2472163;54;21369;-86
2021/09/17 01:18:02;;;;;;;5.87;2.00;;;18.10;74.80;;;;;;2493992;54;20971;-86
2021/09/17 01:20:28;;;;;;;3.40;2.03;;;18.10;74.90;;;;;;2459560;55;21007;-85
2021/09/17 01:22:55;;;;;;;3.35;1.83;;;18.10;75.00;;;;;;2269430;56;20951;-85
2021/09/17 01:25:21;;;;;;;6.30;2.60;;;18.00;74.90;;;;;;2466807;54;21814;-84
2021/09/17 01:27:49;;;;;;;3.72;1.95;;;18.00;75.00;;;;;;2236936;56;21871;-84
2021/09/17 01:30:16;;;;;;;3.05;2.05;;;18.00;75.00;;;;;;2266608;56;20980;-84
2021/09/17 01:32:43;;;;;;;2.95;1.85;;;18.00;75.00;;;;;;2455417;55;21033;-83
2021/09/17 01:35:13;;;;;;;3.05;1.87;;;18.00;75.00;;;;;;2465276;55;20944;-84
2021/09/17 01:37:40;;;;;;;3.00;1.85;;;18.00;75.00;;;;;;2474919;55;21905;-84
2021/09/17 01:40:07;;;;;;;3.78;2.33;;;17.90;74.90;;;;;;2459890;55;21078;-85
2021/09/17 01:42:33;;;;;;;3.00;1.98;;;18.00;75.00;;;;;;2459199;55;20946;-84
2021/09/17 01:45:00;;;;;;;3.22;1.92;;;17.90;74.90;;;;;;2477361;54;20992;-84
2021/09/17 01:47:26;;;;;;;3.78;2.20;;;17.90;75.00;;;;;;2463676;54;20951;-84
2021/09/17 01:49:52;;;;;;;3.58;2.05;;;17.90;75.10;;;;;;2491658;54;21028;-85
2021/09/17 01:52:19;;;;;;;2.83;1.73;;;17.90;75.20;;;;;;2245933;56;20996;-85
2021/09/17 01:54:45;;;;;;;3.10;2.33;;;17.90;75.20;;;;;;2488890;53;21031;-82
2021/09/17 01:57:11;;;;;;;4.05;2.50;;;17.90;75.20;;;;;;2256562;56;20921;-84
2021/09/17 01:59:38;;;;;;;3.95;2.70;;;17.90;75.30;;;;;;2476317;55;21022;-85
2021/09/17 02:02:04;;;;;;;3.55;2.45;;;17.90;75.40;;;;;;2460277;54;21022;-86
2021/09/17 02:04:30;;;;;;;3.72;2.30;;;17.90;75.40;;;;;;2259126;56;21880;-84
2021/09/17 02:06:56;;;;;;;3.37;2.17;;;17.80;75.40;;;;;;2493779;54;21951;-82
2021/09/17 02:09:23;;;;;;;3.95;2.60;;;17.80;75.30;;;;;;2276088;55;21067;-85
2021/09/17 02:11:49;;;;;;;5.28;2.35;;;17.80;75.30;;;;;;2466888;55;20954;-86
2021/09/17 02:14:15;;;;;;;3.67;2.05;;;17.80;75.00;;;;;;2236984;56;20940;-85
2021/09/17 02:16:42;;;;;;;4.28;2.55;;;17.80;74.90;;;;;;2458976;55;21837;-82
2021/09/17 02:19:08;;;;;;;3.90;2.15;;;17.70;74.80;;;;;;2466532;55;20968;-83
2021/09/17 02:21:35;;;;;;;3.50;2.30;;;17.70;74.80;;;;;;2243527;56;20956;-83
2021/09/17 02:24:01;;;;;;;4.60;2.37;;;17.70;74.80;;;;;;2236924;56;21765;-84
2021/09/17 02:26:27;;;;;;;5.53;1.80;;;17.70;74.80;;;;;;2251366;56;20940;-84
2021/09/17 02:28:53;;;;;;;4.87;1.80;;;17.60;74.70;;;;;;2246781;56;20972;-85
2021/09/17 02:31:19;;;;;;;3.37;1.95;;;17.60;74.60;;;;;;2459247;55;20939;-85
2021/09/17 02:33:46;;;;;;;3.60;2.05;;;17.60;74.60;;;;;;2459252;55;20983;-83
2021/09/17 02:36:12;;;;;;;5.25;2.17;;;17.60;74.60;;;;;;2459496;55;20947;-85
2021/09/17 02:38:38;;;;;;;2.95;1.80;;;17.50;74.60;;;;;;2458623;55;20954;-84
2021/09/17 02:41:04;;;;;;;3.78;2.10;;;17.50;74.60;;;;;;2264041;56;20969;-85
2021/09/17 02:43:31;;;;;;;3.20;2.03;;;17.50;74.60;;;;;;2468706;55;21513;-86
2021/09/17 02:45:59;;;;;;;2.92;1.73;;;17.40;74.60;;;;;;2458377;55;21821;-83
2021/09/17 02:48:27;;;;;;;3.55;2.10;;;17.40;74.70;;;;;;2471106;54;21034;-85
2021/09/17 02:50:53;;;;;;;3.80;1.85;;;17.50;74.70;;;;;;2246659;56;20947;-84
2021/09/17 02:53:20;;;;;;;3.37;1.98;;;17.40;74.80;;;;;;2483659;54;20990;-86
2021/09/17 02:55:46;;;;;;;3.53;2.30;;;17.40;74.90;;;;;;2464314;54;21026;-84
2021/09/17 02:58:12;;;;;;;3.00;1.83;;;17.30;74.70;;;;;;2458697;55;20998;-84
2021/09/17 03:00:41;;;;;;;3.53;2.20;;;17.30;74.80;;;;;;2458608;55;21004;-85
2021/09/17 03:03:08;;;;;;;5.07;2.20;;;17.30;74.80;;;;;;2485288;54;21005;-84
2021/09/17 03:05:34;;;;;;;3.75;2.20;;;17.30;74.70;;;;;;2242245;56;21001;-83
2021/09/17 03:08:59;;;;;;;3.50;2.28;;;17.30;74.60;;;;;;2246960;56;21000;-88
2021/09/17 03:11:26;;;;;;;3.45;1.85;;;17.30;74.20;;;;;;2224914;56;20952;-84
2021/09/17 03:13:52;;;;;;;5.18;2.03;;;17.30;74.40;;;;;;2261931;56;20923;-85
2021/09/17 03:16:18;;;;;;;6.75;2.25;;;17.20;74.20;;;;;;2468689;55;20995;-85
2021/09/17 03:18:45;;;;;;;4.37;2.62;;;17.10;74.10;;;;;;2237596;56;20979;-86
2021/09/17 03:21:11;;;;;;;6.03;2.60;;;17.10;74.20;;;;;;2484151;55;21339;-85
2021/09/17 03:23:37;;;;;;;6.20;2.83;;;17.00;74.20;;;;;;2488591;55;21382;-85
2021/09/17 03:26:04;;;;;;;6.78;2.55;;;17.00;74.30;;;;;;2262526;56;20957;-83
2021/09/17 03:28:30;;;;;;;3.50;2.20;;;17.00;74.40;;;;;;2263031;56;20940;-85
2021/09/17 03:30:56;;;;;;;3.78;2.45;;;16.90;74.30;;;;;;2243683;55;21442;-85
2021/09/17 03:33:23;;;;;;;4.15;2.30;;;16.90;74.40;;;;;;2264381;55;20937;-85
2021/09/17 03:35:49;;;;;;;3.22;2.30;;;16.90;74.40;;;;;;2479455;54;21017;-85
2021/09/17 03:38:15;;;;;;;3.60;2.30;;;16.90;74.50;;;;;;2259858;55;21347;-84
2021/09/17 03:40:42;;;;;;;3.22;2.03;;;16.90;74.50;;;;;;2265518;55;20989;-85
2021/09/17 03:43:09;;;;;;;3.35;2.22;;;16.80;74.50;;;;;;2476266;55;21416;-85
2021/09/17 03:45:36;;;;;;;3.03;1.70;;;16.80;74.50;;;;;;2488587;54;21026;-83
2021/09/17 03:48:05;;;;;;;3.20;1.98;;;16.80;74.60;;;;;;2259994;56;22300;-85
2021/09/17 03:50:32;;;;;;;4.22;2.45;;;16.80;74.50;;;;;;2488176;54;21022;-84
2021/09/17 03:52:58;;;;;;;3.65;2.15;;;16.80;74.60;;;;;;2488490;55;21032;-85
2021/09/17 03:55:24;;;;;;;3.75;2.30;;;16.80;74.60;;;;;;2487876;55;20992;-85
2021/09/17 03:57:51;;;;;;;3.70;2.20;;;16.80;74.80;;;;;;2262753;55;20941;-84
2021/09/17 04:00:17;;;;;;;4.47;2.30;;;16.60;74.70;;;;;;2487782;55;21459;-83
2021/09/17 04:02:44;;;;;;;3.65;2.10;;;16.70;74.80;;;;;;2487353;55;20944;-85
2021/09/17 04:05:10;;;;;;;4.00;1.95;;;16.70;74.80;;;;;;2487828;55;20956;-84
2021/09/17 04:07:38;;;;;;;3.35;2.00;;;16.70;74.80;;;;;;2487758;55;20937;-84
2021/09/17 04:10:06;;;;;;;3.97;2.30;;;16.70;74.70;;;;;;2488657;55;20941;-85
2021/09/17 04:12:32;;;;;;;3.58;2.08;;;16.70;74.60;;;;;;2466109;55;20988;-85
2021/09/17 04:14:59;;;;;;;4.50;2.20;;;16.70;74.70;;;;;;2463844;55;21053;-85
2021/09/17 04:17:25;;;;;;;4.07;2.12;;;16.70;74.70;;;;;;2463064;55;21021;-83
2021/09/17 04:19:51;;;;;;;3.67;1.90;;;16.70;74.90;;;;;;2471738;54;20967;-85
2021/09/17 04:22:17;;;;;;;3.55;2.28;;;16.70;75.00;;;;;;2455611;55;20939;-83
2021/09/17 04:24:44;;;;;;;3.15;2.00;;;16.60;75.00;;;;;;2456839;55;20958;-83
2021/09/17 04:27:10;;;;;;;3.92;2.00;;;16.70;75.10;;;;;;2455266;55;20959;-84
2021/09/17 04:29:36;;;;;;;3.75;2.03;;;16.60;75.20;;;;;;2455973;55;20970;-84
2021/09/17 04:32:03;;;;;;;2.67;1.60;;;16.60;75.40;;;;;;2463476;54;21950;-87
2021/09/17 04:34:29;;;;;;;3.67;2.03;;;16.60;75.40;;;;;;2488551;54;20975;-83
2021/09/17 04:36:56;;;;;;;3.08;1.90;;;16.60;75.40;;;;;;2272592;55;21003;-85
2021/09/17 04:39:22;;;;;;;2.58;1.60;;;16.50;75.30;;;;;;2241154;55;20947;-85
2021/09/17 04:41:49;;;;;;;5.40;1.90;;;16.70;75.70;;;;;;2264994;55;21738;-84
2021/09/17 04:44:15;;;;;;;3.10;1.67;;;16.70;75.80;;;;;;2233711;56;20972;-84
2021/09/17 04:46:41;;;;;;;2.83;1.65;;;16.70;75.90;;;;;;2455817;55;21805;-83
2021/09/17 04:49:08;;;;;;;3.55;1.70;;;16.70;75.80;;;;;;2455259;55;20948;-83
2021/09/17 04:51:34;;;;;;;5.45;2.45;;;16.70;75.70;;;;;;2273418;55;20997;-84
2021/09/17 04:54:00;;;;;;;4.35;2.30;;;16.70;75.70;;;;;;2478577;55;21051;-84
2021/09/17 04:56:27;;;;;;;3.60;1.95;;;16.70;75.70;;;;;;2458443;54;20955;-84
2021/09/17 04:58:53;;;;;;;4.68;2.03;;;16.70;75.70;;;;;;2455149;55;21007;-84
2021/09/17 05:01:20;;;;;;;4.72;2.37;;;16.80;75.90;;;;;;2453792;55;20951;-84
2021/09/17 05:03:47;;;;;;;3.20;1.73;;;16.80;75.90;;;;;;2454531;55;20928;-85
2021/09/17 05:06:13;;;;;;;3.47;1.98;;;16.80;76.00;;;;;;2232629;56;20944;-85
2021/09/17 05:08:40;;;;;;;4.03;2.17;;;16.80;76.10;;;;;;2454975;55;20943;-85
2021/09/17 05:11:06;;;;;;;4.03;1.92;;;16.80;76.10;;;;;;2456864;55;21007;-83
2021/09/17 05:13:32;;;;;;;3.50;2.05;;;16.80;76.20;;;;;;2456724;55;21034;-83
2021/09/17 05:15:58;;;;;;;4.10;1.98;;;16.80;76.20;;;;;;2456504;55;21062;-84
2021/09/17 05:18:25;;;;;;;3.92;2.40;;;16.90;76.30;;;;;;2460114;54;21860;-83
2021/09/17 05:20:51;;;;;;;3.30;2.15;;;16.90;76.20;;;;;;2497024;54;20935;-85
2021/09/17 05:23:17;;;;;;;4.10;2.28;;;16.90;76.30;;;;;;2495470;54;21362;-86
2021/09/17 05:25:44;;;;;;;3.25;2.05;;;16.90;76.40;;;;;;2234576;56;21015;-84
2021/09/17 05:28:10;;;;;;;4.30;2.40;;;16.90;76.40;;;;;;2474604;54;21004;-84
2021/09/17 05:30:36;;;;;;;3.50;2.10;;;17.00;76.50;;;;;;2464441;54;20998;-83
2021/09/17 05:33:03;;;;;;;3.95;2.05;;;17.00;76.40;;;;;;2488042;54;21939;-85
2021/09/17 05:35:29;;;;;;;3.78;2.30;;;17.00;76.40;;;;;;2484672;54;21313;-83
2021/09/17 05:37:55;;;;;;;3.25;2.03;;;17.10;76.60;;;;;;2237331;57;20996;-85
2021/09/17 05:40:22;;;;;;;3.80;2.17;;;17.10;76.60;;;;;;2446193;55;20957;-84
2021/09/17 05:42:48;;;;;;;3.47;2.30;;;17.10;76.50;;;;;;2243109;55;21016;-84
2021/09/17 05:45:14;;;;;;;3.50;2.08;;;17.10;76.40;;;;;;2460189;54;20932;-85
2021/09/17 05:47:43;;;;;;;7.05;2.37;;;17.20;76.60;;;;;;2456161;55;20939;-82
2021/09/17 05:50:10;;;;;;;4.28;2.33;;;17.20;76.60;;;;;;2456452;55;21541;-84
2021/09/17 05:52:36;;;;;;;3.60;2.62;;;17.20;76.80;;;;;;2456265;55;21068;-85
2021/09/17 05:55:05;;;;;;;3.80;2.22;;;17.20;76.90;;;;;;2240667;56;21050;-85
2021/09/17 05:57:31;;;;;;;3.30;2.20;;;17.30;77.00;;;;;;2474931;55;21378;-84
2021/09/17 05:59:58;;;;;;;3.10;2.00;;;17.20;77.10;;;;;;2476343;54;20977;-82
2021/09/17 06:02:25;;;;;;;5.30;2.47;;;17.30;77.30;;;;;;2479953;54;20953;-83
2021/09/17 06:04:51;;;;;;;4.37;2.80;;;17.30;77.20;;;;;;2459746;55;21038;-82
2021/09/17 06:07:17;;;;;;;7.50;3.42;;;17.40;77.40;;;;;;2248069;56;21066;-84
2021/09/17 06:09:44;;;;;;;7.10;3.75;;;17.40;77.40;;;;;;2413420;56;20996;-83
2021/09/17 06:12:10;;;;;;;5.15;3.67;;;17.50;77.50;;;;;;2447062;55;21076;-83
2021/09/17 06:14:36;;;;;;;4.53;2.65;;;17.50;77.50;;;;;;2251258;56;20950;-84
2021/09/17 06:17:03;;;;;;;4.30;2.42;;;17.60;77.60;;;;;;2246747;56;20983;-85
2021/09/17 06:19:29;;;;;;;4.32;3.03;;;17.60;77.50;;;;;;2482855;54;20986;-85
2021/09/17 06:21:56;;;;;;;3.50;2.40;;;17.70;77.50;;;;;;2235445;56;21004;-84
2021/09/17 06:24:22;;;;;;;4.12;2.80;;;17.70;77.30;;;;;;2257879;55;20945;-85
2021/09/17 06:26:49;;;;;;;4.43;2.83;;;17.70;77.30;;;;;;2243301;56;21023;-83
2021/09/17 06:29:15;;;;;;;4.07;2.90;;;17.70;77.30;;;;;;2258167;56;20977;-85
2021/09/17 06:31:47;;;;;;;4.80;3.20;;;17.80;77.40;;;;;;2457583;55;20971;-84
2021/09/17 06:34:13;;;;;;;5.85;3.22;;;17.80;77.30;;;;;;2261324;55;21548;-82
2021/09/17 06:36:40;;;;;;;8.05;5.78;;;17.80;77.20;;;;;;2482868;54;20968;-83
2021/09/17 06:39:06;;;;;;;6.80;4.78;;;17.90;77.40;;;;;;2249126;56;20954;-84
2021/09/17 06:41:32;;;;;;;9.95;3.97;;;17.90;77.60;;;;;;2234137;56;20980;-84
2021/09/17 06:43:58;;;;;;;4.75;3.40;;;17.90;77.60;;;;;;2476448;54;20984;-85
2021/09/17 06:46:25;;;;;;;5.60;3.20;;;18.00;77.80;;;;;;2484462;54;21008;-85
2021/09/17 06:48:51;;;;;;;4.18;2.85;;;18.00;77.80;;;;;;2465673;55;21989;-84
2021/09/17 06:51:19;;;;;;;5.60;2.92;;;18.10;77.90;;;;;;2456081;55;20953;-84
2021/09/17 06:53:45;;;;;;;5.07;2.85;;;18.10;77.80;;;;;;2241559;55;20999;-84
2021/09/17 06:56:12;;;;;;;5.87;3.37;;;18.20;77.90;;;;;;2469025;55;21088;-84
2021/09/17 06:58:38;;;;;;;4.35;3.20;;;18.20;77.90;;;;;;2234995;56;20962;-84
2021/09/17 07:01:04;;;;;;;5.47;2.90;;;18.30;78.00;;;;;;2455919;55;20941;-83
2021/09/17 07:03:31;;;;;;;4.82;2.92;;;18.30;78.10;;;;;;2233951;56;20957;-84
2021/09/17 07:05:57;;;;;;;4.85;2.78;;;18.40;78.20;;;;;;2234635;55;21062;-85
2021/09/17 07:08:24;;;;;;;6.32;2.60;;;18.40;78.20;;;;;;2453766;55;20992;-85
2021/09/17 07:10:50;;;;;;;3.78;2.58;;;18.50;78.30;;;;;;2454690;55;20992;-85
2021/09/17 07:13:16;;;;;;;4.57;3.08;;;18.50;78.10;;;;;;2485671;55;21799;-83
2021/09/17 07:15:43;;;;;;;3.55;2.30;;;18.60;78.10;;;;;;2262738;55;20993;-83
2021/09/17 07:18:10;;;;;;;3.37;2.15;;;18.70;78.30;;;;;;2466039;54;21020;-84
2021/09/17 07:20:39;;;;;;;5.20;2.90;;;18.70;78.60;;;;;;2485882;55;21064;-85
2021/09/17 07:23:05;;;;;;;3.95;2.62;;;18.80;78.90;;;;;;2262408;56;20945;-84
2021/09/17 07:25:32;;;;;;;4.15;2.70;;;18.90;79.20;;;;;;2485978;54;21004;-84
2021/09/17 07:27:58;;;;;;;4.30;3.00;;;18.90;79.20;;;;;;2486530;55;20977;-83
2021/09/17 07:30:24;;;;;;;4.43;2.78;;;19.10;79.40;;;;;;2474304;55;21881;-83
2021/09/17 07:32:51;;;;;;;7.25;2.85;;;19.10;79.40;;;;;;2246373;56;20927;-85
2021/09/17 07:35:19;;;;;;;4.45;2.70;;;19.20;79.40;;;;;;2475626;55;20952;-85
2021/09/17 07:37:47;;;;;;;4.15;2.53;;;19.40;79.40;;;;;;2249534;56;21058;-84
2021/09/17 07:40:14;;;;;;;3.78;2.60;;;19.20;79.10;;;;;;2497961;53;20936;-85
2021/09/17 07:42:41;;;;;;;3.45;2.12;;;19.40;79.20;;;;;;2452014;55;20999;-84
2021/09/17 07:45:08;;;;;;;3.20;2.20;;;19.50;79.10;;;;;;2447540;55;21942;-84
2021/09/17 07:47:34;;;;;;;3.83;2.72;;;19.60;79.20;;;;;;2455131;54;21329;-85
2021/09/17 07:50:01;;;;;;;4.00;2.60;;;19.70;79.00;;;;;;2491553;54;21053;-83
2021/09/17 07:52:27;;;;;;;3.97;2.53;;;19.70;78.90;;;;;;2239770;56;20997;-82
2021/09/17 07:54:53;;;;;;;4.22;2.67;;;19.80;78.90;;;;;;2460745;55;20987;-85
2021/09/17 07:57:20;;;;;;;5.03;3.00;;;19.90;78.90;;;;;;2455903;55;21491;-84
2021/09/17 07:59:46;;;;;;;4.22;2.95;;;19.90;78.70;;;;;;2461981;54;20933;-84
2021/09/17 08:02:12;;;;;;;4.93;2.60;;;20.00;78.70;;;;;;2260636;56;20997;-85
2021/09/17 08:04:39;;;;;;;4.07;2.58;;;20.10;78.70;;;;;;2258179;56;21061;-85
2021/09/17 08:07:06;;;;;;;4.35;3.20;;;20.10;78.60;;;;;;2253923;56;21072;-84
2021/09/17 08:09:33;;;;;;;5.10;3.33;;;20.20;78.40;;;;;;2464050;55;20961;-85
2021/09/17 08:11:59;;;;;;;4.40;3.12;;;20.20;78.30;;;;;;2479842;55;21016;-83
2021/09/17 08:14:25;;;;;;;5.32;3.15;;;20.30;78.40;;;;;;2457688;55;21343;-83
2021/09/17 08:16:52;;;;;;;5.00;2.70;;;20.40;78.30;;;;;;2234558;56;21031;-84
2021/09/17 08:19:18;;;;;;;3.78;2.47;;;20.40;78.40;;;;;;2455961;55;20999;-85
2021/09/17 08:21:45;;;;;;;4.43;2.70;;;20.50;78.70;;;;;;2476880;54;21471;-84
2021/09/17 08:24:14;;;;;;;4.12;2.55;;;20.50;78.50;;;;;;2244570;56;20920;-82
2021/09/17 08:26:45;;;;;;;4.10;2.42;;;20.60;78.40;;;;;;2477482;54;20963;-82
2021/09/17 08:29:11;;;;;;;4.18;2.83;;;20.60;78.00;;;;;;2247661;56;20959;-82
2021/09/17 08:31:38;;;;;;;3.70;2.62;;;20.70;78.10;;;;;;2498244;54;20944;-84
2021/09/17 08:34:04;;;;;;;4.37;2.20;;;20.70;77.90;;;;;;2455620;55;20952;-84
2021/09/17 08:36:30;;;;;;;3.70;2.30;;;20.80;78.10;;;;;;2456025;55;20916;-84
2021/09/17 08:38:57;;;;;;;6.50;2.30;;;20.80;78.20;;;;;;2497751;54;21264;-84
2021/09/17 08:41:24;;;;;;;4.72;2.37;;;20.90;78.00;;;;;;2234475;56;21015;-84
2021/09/17 08:43:51;;;;;;;3.50;2.28;;;20.90;77.80;;;;;;2234353;56;20979;-84
2021/09/17 08:46:18;;;;;;;3.22;1.77;;;20.90;77.70;;;;;;2455991;55;20988;-84
2021/09/17 08:48:46;;;;;;;4.22;2.28;;;21.00;77.50;;;;;;2233143;56;21923;-84
2021/09/17 08:51:12;;;;;;;3.87;2.08;;;21.00;77.20;;;;;;2456061;55;20992;-85
2021/09/17 08:53:39;;;;;;;3.30;1.98;;;21.00;77.20;;;;;;2485903;54;21481;-83
2021/09/17 08:56:07;;;;;;;3.47;2.47;;;21.00;77.00;;;;;;2466204;55;20924;-84
2021/09/17 08:58:36;;;;;;;3.80;2.42;;;21.00;77.00;;;;;;2455239;55;20976;-83
2021/09/17 09:01:03;;;;;;;3.42;2.12;;;21.10;76.90;;;;;;2272757;56;21475;-85
2021/09/17 09:03:32;;;;;;;5.47;2.30;;;21.10;77.50;;;;;;2473629;55;20940;-85
2021/09/17 09:06:12;;;;;;;3.95;2.55;;;21.10;77.40;;;;;;2251291;56;21041;-84
2021/09/17 09:08:42;;;;;;;4.20;2.33;;;21.10;76.60;;;;;;2442543;55;20941;-84
2021/09/17 09:11:25;;;;;;;3.60;2.30;;;21.20;77.70;;;;;;2446058;55;20967;-85
2021/09/17 09:14:10;;;;;;;3.08;2.17;;;21.20;76.70;;;;;;2242130;56;21035;-84
2021/09/17 09:16:39;;;;;;;3.62;2.33;;;21.20;76.20;;;;;;2239935;56;21036;-84
2021/09/17 09:19:28;;;;;;;3.80;1.90;;;21.20;76.80;;;;;;2261739;56;20941;-84
2021/09/17 09:22:09;;;;;;;2.90;2.00;;;21.20;75.90;;;;;;2486521;55;20956;-85
2021/09/17 09:24:40;;;;;;;3.40;2.28;;;21.30;75.80;;;;;;2485761;54;20993;-82
2021/09/17 09:27:20;;;;;;;3.87;2.30;;;21.30;77.00;;;;;;2483808;54;22043;-85
2021/09/17 09:29:47;;;;;;;3.25;2.25;;;21.30;76.30;;;;;;2256336;56;21039;-84
2021/09/17 09:32:35;;;;;;;3.60;2.30;;;21.30;76.80;;;;;;2483856;55;20941;-84
2021/09/17 09:35:06;;;;;;;3.90;2.37;;;21.30;75.20;;;;;;2483619;54;21875;-84
2021/09/17 09:37:38;;;;;;;3.20;2.10;;;21.30;76.20;;;;;;2257704;56;21000;-84
2021/09/17 09:40:08;;;;;;;3.72;2.47;;;21.30;76.10;;;;;;2485035;55;21016;-84
2021/09/17 09:42:40;;;;;;;5.12;2.53;;;21.40;76.40;;;;;;2485627;55;20932;-85
2021/09/17 09:45:13;;;;;;;2.97;1.93;;;21.40;76.40;;;;;;2262451;55;21027;-85
2021/09/17 09:47:40;;;;;;;4.18;2.30;;;21.40;76.40;;;;;;2465084;55;21259;-83
2021/09/17 09:50:08;;;;;;;4.68;2.50;;;21.40;76.80;;;;;;2273082;55;20929;-84
2021/09/17 09:52:34;;;;;;;4.28;2.50;;;21.40;76.70;;;;;;2259758;56;21457;-84
2021/09/17 09:55:01;;;;;;;4.43;2.60;;;21.40;76.80;;;;;;2264436;55;21053;-84
2021/09/17 09:57:27;;;;;;;4.22;3.00;;;21.50;77.00;;;;;;2256974;55;21021;-84
2021/09/17 09:59:54;;;;;;;5.62;2.67;;;21.50;77.00;;;;;;2486081;54;20964;-85
2021/09/17 10:02:23;;;;;;;4.72;2.72;;;21.50;77.20;;;;;;2265271;55;20985;-83
2021/09/17 10:04:50;;;;;;;4.70;3.47;;;21.50;77.10;;;;;;2258857;55;21003;-84
2021/09/17 10:07:17;;;;;;;4.45;3.00;;;21.50;77.00;;;;;;2257871;56;21085;-84
2021/09/17 10:09:43;;;;;;;3.60;2.80;;;21.60;77.10;;;;;;2459861;55;21067;-84
2021/09/17 10:12:13;;;;;;;5.07;2.70;;;21.60;77.40;;;;;;2483958;54;20936;-84
2021/09/17 10:14:43;;;;;;;3.80;2.90;;;21.70;77.30;;;;;;2240299;55;21001;-85
2021/09/17 10:17:22;;;;;;;3.58;2.20;;;21.70;77.30;;;;;;2484977;55;20933;-85
2021/09/17 10:19:49;;;;;;;4.78;3.00;;;21.80;77.50;;;;;;2486033;55;21838;-84
2021/09/17 10:22:32;;;;;;;3.83;2.58;;;21.80;77.70;;;;;;2259678;56;20936;-83
2021/09/17 10:25:16;;;;;;;3.80;2.40;;;21.90;77.00;;;;;;2486713;55;20956;-83
2021/09/17 10:27:44;;;;;;;3.33;2.20;;;22.00;76.60;;;;;;2259503;56;20916;-83
2021/09/17 10:30:13;;;;;;;3.40;2.30;;;22.00;77.60;;;;;;2259971;56;21015;-83
2021/09/17 10:32:47;;;;;;;4.35;2.67;;;22.10;77.60;;;;;;2261905;55;20996;-84
2021/09/17 10:35:24;;;;;;;3.40;2.17;;;22.20;77.30;;;;;;2261017;56;21017;-83
2021/09/17 10:38:00;;;;;;;3.72;2.28;;;22.20;76.70;;;;;;2484153;54;20957;-86
2021/09/17 10:43:58;;;;;;;3.58;2.28;;;22.30;76.60;;;;;;2465568;54;21083;-83
2021/09/17 10:46:31;;;;;;;3.40;1.95;;;22.50;76.10;;;;;;2484419;55;20925;-83
2021/09/17 10:48:58;;;;;;;3.50;2.05;;;22.60;77.20;;;;;;2489684;55;20937;-83
2021/09/17 10:51:57;;;;;;;2.92;2.00;;;22.70;77.50;;;;;;2488045;55;21000;-82
2021/09/17 10:54:35;;;;;;;7.43;1.83;;;22.70;75.00;;;;;;2264423;56;20988;-82
2021/09/17 10:57:03;;;;;;;3.33;1.87;;;22.80;75.10;;;;;;2261735;56;21004;-82
2021/09/17 10:59:39;;;;;;;3.30;2.20;;;22.80;76.30;;;;;;2260492;56;20983;-82
2021/09/17 11:02:06;;;;;;;3.22;2.00;;;22.90;75.10;;;;;;2486305;54;21061;-82
2021/09/17 11:04:34;;;;;;;3.10;1.92;;;22.90;76.00;;;;;;2488781;54;20949;-82
2021/09/17 11:13:48;;;;;;;3.33;2.12;;;23.00;75.70;;;;;;2260351;56;21128;-83
2021/09/17 11:16:16;;;;;;;2.28;1.25;;;23.00;74.00;;;;;;2487985;55;20995;-83
2021/09/17 11:19:44;;;;;;;3.40;1.70;;;23.20;76.20;;;;;;2488962;55;21428;-83
2021/09/17 11:22:11;;;;;;;2.90;1.50;;;23.30;73.70;;;;;;2261792;56;21529;-82
2021/09/17 11:24:39;;;;;;;2.80;1.60;;;23.20;76.30;;;;;;2268039;56;21043;-84
2021/09/17 11:27:06;;;;;;;3.37;2.00;;;23.30;76.40;;;;;;2243354;56;21080;-83
2021/09/17 11:29:32;;;;;;;3.40;2.10;;;23.40;76.80;;;;;;2489023;53;21597;-82
2021/09/17 11:31:59;;;;;;;3.67;1.90;;;23.50;77.00;;;;;;2269273;55;21000;-82
2021/09/17 11:34:28;;;;;;;3.40;2.08;;;23.60;76.40;;;;;;2262301;56;21036;-83
2021/09/17 11:37:02;;;;;;;3.00;1.83;;;23.60;75.60;;;;;;2489359;55;21024;-82
2021/09/17 11:39:37;;;;;;;3.33;1.90;;;23.70;75.00;;;;;;2264461;56;20996;-82
2021/09/17 11:42:08;;;;;;;4.50;2.30;;;23.80;73.70;;;;;;2464253;55;21042;-82
2021/09/17 11:44:47;;;;;;;3.15;1.95;;;23.80;74.90;;;;;;2488921;54;20976;-81
2021/09/17 11:47:31;;;;;;;3.37;2.03;;;23.90;74.20;;;;;;2488171;54;21088;-81
2021/09/17 11:49:59;;;;;;;3.08;1.77;;;23.90;74.60;;;;;;2448251;55;21071;-83
2021/09/17 11:52:25;;;;;;;4.28;1.92;;;24.00;74.50;;;;;;2471792;54;20949;-83
2021/09/17 11:54:59;;;;;;;2.62;1.60;;;24.00;74.40;;;;;;2243728;55;21134;-86
2021/09/17 11:57:33;;;;;;;3.05;1.80;;;24.10;73.10;;;;;;2454981;55;20988;-85
2021/09/17 11:59:59;;;;;;;3.05;1.65;;;24.10;72.50;;;;;;2216819;57;21042;-84
2021/09/17 12:02:26;;;;;;;2.70;1.55;;;24.10;73.40;;;;;;2455801;55;20963;-84
2021/09/17 12:05:06;;;;;;;3.10;2.00;;;24.10;73.30;;;;;;2235937;56;20998;-84
2021/09/17 12:07:34;;;;;;;2.90;1.70;;;24.10;71.90;;;;;;2472126;55;20921;-84
2021/09/17 12:10:07;;;;;;;2.92;1.80;;;24.10;73.10;;;;;;2256858;56;21530;-84
2021/09/17 12:12:34;;;;;;;2.67;1.70;;;24.10;72.40;;;;;;2279061;55;21000;-85
2021/09/17 12:15:01;;;;;;;3.50;1.80;;;24.20;73.60;;;;;;2487443;55;20949;-84
2021/09/17 12:17:28;;;;;;;3.17;1.98;;;24.20;73.90;;;;;;2259988;56;20929;-85
2021/09/17 12:20:05;;;;;;;3.10;1.70;;;24.20;73.80;;;;;;2497988;54;21038;-84
2021/09/17 12:22:33;;;;;;;2.80;1.80;;;24.20;73.20;;;;;;2255876;57;20981;-85
2021/09/17 12:25:09;;;;;;;3.53;1.87;;;24.30;72.80;;;;;;2236976;56;21828;-85
2021/09/17 12:27:41;;;;;;;2.60;1.70;;;24.30;71.70;;;;;;2467284;55;20936;-83
2021/09/17 12:30:30;;;;;;;;;;;24.30;73.00;;;;;;2247815;56;20941;-85
2021/09/17 12:33:41;;;;;;;2.50;1.50;;;24.40;71.00;;;;;;2465072;55;20062;-82
2021/09/17 12:36:12;;;;;;;3.55;1.73;;;24.40;70.90;;;;;;2457171;55;20920;-84
2021/09/17 12:38:38;;;;;;;2.92;1.77;;;24.40;72.10;;;;;;2234729;56;20940;-84
2021/09/17 12:41:09;;;;;;;3.10;1.77;;;24.40;72.50;;;;;;2235453;56;20963;-85
2021/09/17 12:44:09;;;;;;;2.90;1.60;;;24.40;71.30;;;;;;2439708;55;21064;-83
2021/09/17 12:46:39;;;;;;;2.60;1.70;;;24.40;71.20;;;;;;2239000;56;20940;-85
2021/09/17 12:49:05;;;;;;;3.00;1.65;;;24.30;71.40;;;;;;2456357;55;21764;-85
2021/09/17 12:51:31;;;;;;;3.17;1.65;;;24.30;71.40;;;;;;2237265;56;21453;-84
2021/09/17 12:54:00;;;;;;;2.40;1.50;;;24.40;71.80;;;;;;2247933;55;21014;-85
2021/09/17 12:56:26;;;;;;;2.60;1.50;;;24.30;72.20;;;;;;2439842;55;21002;-84
2021/09/17 13:00:48;;;;;;;3.80;2.20;;;24.40;72.90;;;;;;2244069;56;20954;-84
2021/09/17 13:03:15;;;;;;;2.95;1.50;;;24.50;70.30;;;;;;2457736;55;20960;-83
2021/09/17 13:05:43;;;;;;;3.08;1.50;;;24.60;73.00;;;;;;2235321;55;20963;-83
2021/09/17 13:08:09;;;;;;;3.35;1.60;;;24.60;72.60;;;;;;2456400;55;21937;-83